Skip to main content

NOAA/GLERL Met Station at Muskegon, MI

Previous 3 Hours (2 minute increments)
See also Previous 5 Days (top of hour)
Jump down to Data
Switch to [English][Metric]
Zoom: Click and drag, Pan: shift-click and drag, Unzoom: double-click, Unzoom All






See also 1-day windrose plot


NOAA/GLERL Met Station at Muskegon, MI

Previous 3 Hours (2 minute increments)
See also Previous 5 Days (top of hour only)
Jump up to Graphs
Switch to [English][Metric]
                  Wind  Wind  Wind   Air   Dew   Rel     Sta   PAR
                   Spd   Gst   Dir  Temp    Pt   Hum    Pres uE/m2/
YYYY-MM-DD   EDT   m/s   m/s   deg     C     C     %      mb   sec
2021-04-19 14:20   7.7   8.9   324   5.2   2.3  81.3  988.90   869
2021-04-19 14:18   7.5   8.3   322   5.0   2.0  80.8  989.00   876
2021-04-19 14:16   7.3   8.4   321   5.0   2.1  81.2  989.10   841
2021-04-19 14:14   7.6   8.1   318   5.1   2.2  81.2  989.10   818
2021-04-19 14:12   7.4   8.0   320   5.2   2.3  81.2  989.10   837
2021-04-19 14:10   7.2   8.2   323   5.2   2.1  80.6  989.10   848
2021-04-19 14:08   7.2   8.5   327   5.3   2.1  79.6  989.00   893
2021-04-19 14:06   7.5   8.3   329   5.3   2.0  79.4  988.90   944
2021-04-19 14:04   7.4   8.2   329   5.2   1.8  78.7  988.90   998
2021-04-19 14:02   8.0   8.5   330   5.2   1.6  77.3  988.90  1032
2021-04-19 14:00   8.7   9.6   329   5.3   1.8  77.8  988.90  1046
2021-04-19 13:58   8.3   9.2   329   5.2   1.7  78.3  988.90   972
2021-04-19 13:56   8.5   9.6   329   5.2   1.7  78.2  988.90   943
2021-04-19 13:54   9.0  10.3   330   5.2   2.0  79.7  988.90   919
2021-04-19 13:52   8.1   9.4   326   5.2   2.1  80.6  988.90   886
2021-04-19 13:50   7.9   8.8   329   5.2   2.1  80.5  988.90   894
2021-04-19 13:48   7.5   8.1   330   5.2   2.0  79.6  988.90   979
2021-04-19 13:46   8.5   9.1   332   5.3   1.9  78.7  988.80  1021
2021-04-19 13:44   8.2   9.2   333   5.3   1.9  78.9  988.80  1123
2021-04-19 13:42   9.0   9.9   332   5.3   1.8  78.0  988.80  1196
2021-04-19 13:40   9.6  10.2   335   5.3   1.7  77.5  988.80  1201
2021-04-19 13:38   9.4  10.2   336   5.3   1.6  77.1  988.60  1175
2021-04-19 13:36   9.3  10.1   336   5.4   1.7  76.9  988.70  1230
2021-04-19 13:34   9.5  10.8   334   5.5   1.8  77.0  988.80  1280
2021-04-19 13:32   9.2  10.0   335   5.5   1.9  77.6  988.60  1378
2021-04-19 13:30   9.9  10.8   341   5.5   1.8  76.9  988.60  1462
2021-04-19 13:28   8.7   9.7   338   5.4   1.8  77.5  988.50  1426
2021-04-19 13:26   9.0   9.6   339   5.4   1.8  77.3  988.50  1412
2021-04-19 13:24   8.7   9.7   342   5.4   1.9  78.1  988.50  1324
2021-04-19 13:22   8.6  10.1   341   5.5   2.1  78.9  988.50  1364
2021-04-19 13:20   7.9   8.9   342   5.5   2.5  81.1  988.50  1379
2021-04-19 13:18   7.5   8.6   342   5.4   2.3  80.4  988.50  1402
2021-04-19 13:16   8.2   9.1   341   5.4   2.5  81.4  988.50  1431
2021-04-19 13:14   8.0   8.3   338   5.3   2.3  81.0  988.50  1299
2021-04-19 13:12   8.3   8.9   337   5.3   2.2  80.6  988.50  1306
2021-04-19 13:10   8.2   8.8   334   5.4   2.4  81.0  988.50  1258
2021-04-19 13:08   7.8   8.9   334   5.4   2.7  82.4  988.40  1198
2021-04-19 13:06   8.2   9.1   333   5.4   2.4  81.0  988.50  1218
2021-04-19 13:04   8.4   9.1   330   5.5   2.7  82.0  988.50  1337
2021-04-19 13:02   7.7   8.8   330   5.5   2.8  82.9  988.50  1460
2021-04-19 13:00   7.7   9.0   328   5.5   2.9  83.3  988.50  1362
2021-04-19 12:58   7.6   8.4   327   5.5   3.0  83.9  988.50  1220
2021-04-19 12:56   6.7   8.0   327   5.5   3.0  84.0  988.50  1167
2021-04-19 12:54   6.3   7.2   325   5.6   3.3  84.8  988.50  1164
2021-04-19 12:52   6.8   7.4   324   5.5   3.0  84.1  988.50  1452
2021-04-19 12:50   6.8   7.9   325   5.5   3.2  85.0  988.50  1374
2021-04-19 12:48   6.8   7.5   322   5.6   3.4  85.9  988.50  1273
2021-04-19 12:46   6.1   7.3   324   5.5   3.1  84.7  988.30  1334
2021-04-19 12:44   6.7   8.1   323   5.6   3.0  83.0  988.30  1165
2021-04-19 12:42   6.5   7.0   326   5.7   2.9  81.9  988.30  1415
2021-04-19 12:40   6.5   7.1   328   5.7   2.8  81.5  988.20  1707
2021-04-19 12:38   7.0   7.7   331   5.7   2.8  81.5  988.10  1798
2021-04-19 12:36   7.0   7.7   333   5.8   3.0  82.0  988.10  1714
2021-04-19 12:34   6.7   7.3   331   5.7   2.9  81.9  988.00  1680
2021-04-19 12:32   6.7   7.3   333   5.7   2.8  81.5  988.00  1607
2021-04-19 12:30   7.2   7.9   334   5.8   2.9  81.3  988.00  1565
2021-04-19 12:28   7.2   8.0   336   5.7   2.7  80.8  988.00  1476
2021-04-19 12:26   7.7   8.8   339   5.8   2.8  80.8  988.00  1416
2021-04-19 12:24   7.9   8.9   336   5.6   2.6  80.7  988.10  1574
2021-04-19 12:22   8.4   9.1   339   5.6   2.5  80.4  988.00  1611
2021-04-19 12:20   8.1   9.1   339   5.6   2.6  80.9  988.00  1429
2021-04-19 12:18   7.8   9.4   342   5.6   2.8  82.0  988.00  1325
2021-04-19 12:16   8.8   9.8   343   5.6   2.9  82.6  988.00  1332
2021-04-19 12:14   8.1   9.6   345   5.5   2.9  83.5  988.00  1349
2021-04-19 12:12   8.3   9.6   343   5.5   3.2  85.1  988.00  1375
2021-04-19 12:10   8.0   9.3   342   5.5   3.4  86.2  988.00  1449
2021-04-19 12:08   8.2   9.6   338   5.5   3.5  86.7  988.00  1280
2021-04-19 12:06   8.1   8.5   339   5.6   3.6  87.0  988.00  1127
2021-04-19 12:04   7.9   8.7   340   5.7   3.7  86.9  987.80  1325
2021-04-19 12:02   8.0   9.6   341   5.6   3.6  87.2  987.80  1531
2021-04-19 12:00   7.7   9.2   341   5.5   3.8  88.7  987.80  1307
2021-04-19 11:58   7.6   8.4   335   5.5   4.0  89.8  987.80  1388
2021-04-19 11:56   7.4   8.7   332   5.3   3.9  90.8  987.80  1159
2021-04-19 11:54   7.0   7.9   329   5.3   4.0  91.5  987.80   987
2021-04-19 11:52   6.8   7.8   325   5.3   4.1  91.9  987.80   810
2021-04-19 11:50   6.3   7.2   324   5.3   4.2  92.3  987.80   704
2021-04-19 11:48   6.3   6.9   324   5.3   4.2  92.4  987.80   647
2021-04-19 11:46   6.2   7.1   325   5.2   4.1  92.5  987.80   627
2021-04-19 11:44   6.6   7.3   323   5.2   4.1  92.7  987.80   606
2021-04-19 11:42   6.2   7.0   325   5.2   4.2  93.0  987.80   583
2021-04-19 11:40   6.4   7.1   323   5.1   4.1  93.4  987.80   520
2021-04-19 11:38   6.3   7.2   320   5.0   4.1  93.7  987.80   454
2021-04-19 11:36   5.6   6.3   319   5.0   4.1  93.7  987.80   414
2021-04-19 11:34   5.4   6.1   318   5.0   4.1  93.7  987.80   339
2021-04-19 11:32   5.3   6.3   314   5.0   4.1  93.7  987.80   278
2021-04-19 11:30   5.3   6.1   318   5.0   4.1  93.8  987.70   247
2021-04-19 11:28   5.8   6.7   319   5.0   4.1  94.0  987.70   234
2021-04-19 11:26   5.5   6.6   319   5.0   4.2  94.3  987.70   224
2021-04-19 11:24   5.1   6.0   318   5.0   4.2  94.4  987.60   212
2021-04-19 11:22   5.3   5.7   317   4.9   4.1  94.3  987.70   186
2021-04-19 11:20   5.2   6.2   319   4.9   4.1  94.3  987.50   181